createdAt,value
2022-09-13T00:00:11.994Z,14.20
2022-09-13T00:03:48.654Z,14.23
2022-09-13T00:07:25.085Z,14.26
2022-09-13T00:11:02.197Z,14.29
2022-09-13T00:14:38.918Z,14.31
2022-09-13T00:18:17.085Z,14.34
2022-09-13T00:21:52.720Z,14.38
2022-09-13T00:25:29.352Z,14.39
2022-09-13T00:29:07.347Z,14.40
2022-09-13T00:32:42.836Z,14.40
2022-09-13T00:36:20.218Z,14.42
2022-09-13T00:39:56.242Z,14.44
2022-09-13T00:43:56.670Z,14.45
2022-09-13T00:47:13.694Z,14.45
2022-09-13T00:50:51.912Z,14.46
2022-09-13T00:54:28.570Z,14.46
2022-09-13T00:58:06.505Z,14.47
2022-09-13T01:01:44.419Z,14.49
2022-09-13T01:05:19.223Z,14.50
2022-09-13T01:08:54.126Z,14.49
2022-09-13T01:13:00.190Z,14.48
2022-09-13T01:16:13.306Z,14.47
2022-09-13T01:19:49.956Z,14.44
2022-09-13T01:23:47.925Z,14.41
2022-09-13T01:27:20.641Z,14.35
2022-09-13T01:30:46.822Z,14.27
2022-09-13T01:34:54.721Z,14.18
2022-09-13T01:38:13.093Z,14.13
2022-09-13T01:41:51.347Z,14.08
2022-09-13T01:45:45.598Z,14.06
2022-09-13T01:49:14.731Z,14.06
2022-09-13T01:52:44.977Z,14.05
2022-09-13T01:56:17.358Z,14.06
2022-09-13T01:59:47.839Z,14.07
2022-09-13T02:03:18.571Z,14.10
2022-09-13T02:06:57.479Z,14.12
2022-09-13T02:10:36.408Z,14.14
2022-09-13T02:14:16.000Z,14.17
2022-09-13T02:17:47.199Z,14.21
2022-09-13T02:21:27.320Z,14.24
2022-09-13T02:25:00.417Z,14.28
2022-09-13T02:28:39.165Z,14.33
2022-09-13T02:32:16.094Z,14.36
2022-09-13T02:35:54.725Z,14.38
2022-09-13T02:39:25.106Z,14.39
2022-09-13T02:43:23.365Z,14.41
2022-09-13T02:46:42.340Z,14.42
2022-09-13T02:50:32.212Z,14.41
2022-09-13T02:54:37.298Z,14.37
2022-09-13T02:58:27.595Z,14.32
2022-09-13T03:01:27.618Z,14.28
2022-09-13T03:05:04.279Z,14.25
2022-09-13T03:08:41.201Z,14.22
2022-09-13T03:12:17.968Z,14.20
2022-09-13T03:16:00.142Z,14.16
2022-09-13T03:20:12.388Z,14.12
2022-09-13T03:23:49.883Z,14.11
2022-09-13T03:27:01.359Z,14.09
2022-09-13T03:30:25.837Z,14.09
2022-09-13T03:34:41.455Z,14.10
2022-09-13T03:37:55.044Z,14.12
2022-09-13T03:41:37.142Z,14.15
2022-09-13T03:45:10.144Z,14.16
2022-09-13T03:48:45.744Z,14.15
2022-09-13T03:52:22.015Z,14.15
2022-09-13T04:03:15.275Z,14.14
2022-09-13T04:06:54.028Z,14.10
2022-09-13T04:10:28.873Z,14.07
2022-09-13T04:14:04.305Z,14.02
2022-09-13T04:17:39.923Z,13.99
2022-09-13T04:21:17.481Z,13.96
2022-09-13T04:28:29.947Z,13.95
2022-09-13T04:32:06.616Z,13.95
2022-09-13T04:35:44.038Z,13.97
2022-09-13T04:39:21.363Z,13.99
2022-09-13T04:42:58.742Z,14.01
2022-09-13T04:46:40.803Z,14.03
2022-09-13T04:50:10.584Z,14.05
2022-09-13T04:53:48.276Z,14.08
2022-09-13T04:57:24.516Z,14.11
2022-09-13T05:01:03.606Z,14.15
2022-09-13T05:04:39.092Z,14.18
2022-09-13T05:08:15.446Z,14.23
2022-09-13T05:11:53.125Z,14.26
2022-09-13T05:15:27.993Z,14.31
2022-09-13T05:19:04.823Z,14.37
2022-09-13T05:22:41.547Z,14.43
2022-09-13T05:26:32.018Z,14.51
2022-09-13T05:29:55.188Z,14.57
2022-09-13T05:33:35.033Z,14.64
2022-09-13T05:37:09.047Z,14.71
2022-09-13T05:40:46.403Z,14.80
2022-09-13T05:44:22.513Z,14.91
2022-09-13T05:48:00.067Z,14.95
2022-09-13T05:51:36.808Z,14.97
2022-09-13T05:55:12.796Z,14.97
2022-09-13T05:58:51.592Z,14.97
2022-09-13T06:02:26.539Z,14.97
2022-09-13T06:06:04.021Z,14.98
2022-09-13T06:09:39.832Z,15.01
2022-09-13T06:13:16.748Z,15.08
2022-09-13T06:16:53.584Z,15.16
2022-09-13T06:24:07.315Z,15.35
2022-09-13T06:27:44.273Z,15.44
2022-09-13T06:31:23.742Z,15.57
2022-09-13T06:34:57.763Z,15.72
2022-09-13T06:38:36.626Z,15.85
2022-09-13T06:42:17.977Z,15.93
2022-09-13T06:45:52.056Z,15.98
2022-09-13T06:49:31.874Z,16.03
2022-09-13T06:53:02.159Z,16.04
2022-09-13T06:56:39.861Z,16.03
2022-09-13T07:00:16.329Z,16.07
2022-09-13T07:04:00.594Z,16.25
2022-09-13T07:07:32.128Z,16.38
2022-09-13T07:11:08.023Z,16.42
2022-09-13T07:14:44.947Z,16.42
2022-09-13T07:18:23.144Z,16.44
2022-09-13T07:21:59.724Z,16.46
2022-09-13T07:25:37.570Z,16.48
2022-09-13T07:29:15.806Z,16.50
2022-09-13T07:32:46.398Z,16.50
2022-09-13T07:36:27.670Z,16.53
2022-09-13T07:40:02.552Z,16.57
2022-09-13T07:43:37.201Z,16.62
2022-09-13T07:47:13.318Z,16.67
2022-09-13T07:51:16.667Z,16.72
2022-09-13T07:58:06.090Z,16.76
2022-09-13T08:01:45.497Z,16.76
2022-09-13T08:05:21.388Z,16.74
2022-09-13T08:08:59.280Z,16.71
2022-09-13T08:19:44.689Z,16.39
2022-09-13T08:23:21.321Z,16.33
2022-09-13T08:26:58.704Z,16.27
2022-09-13T08:34:16.629Z,16.15
2022-09-13T08:37:57.194Z,16.06
2022-09-13T08:42:01.290Z,15.99
2022-09-13T08:45:23.473Z,15.95
2022-09-13T08:49:00.608Z,15.97
2022-09-13T08:52:36.908Z,16.00
2022-09-13T08:56:14.440Z,16.07
2022-09-13T09:03:52.888Z,16.29
2022-09-13T09:07:17.994Z,16.39
2022-09-13T09:10:51.341Z,16.50
2022-09-13T09:14:42.828Z,16.59
2022-09-13T09:18:10.822Z,16.67
2022-09-13T09:21:38.419Z,16.71
2022-09-13T09:25:15.043Z,16.71
2022-09-13T09:28:55.625Z,16.69
2022-09-13T09:32:31.147Z,16.69
2022-09-13T09:36:31.849Z,16.69
2022-09-13T09:39:42.595Z,16.68
2022-09-13T09:43:27.291Z,16.68
2022-09-13T09:47:04.834Z,16.67
2022-09-13T09:50:38.906Z,16.67
2022-09-13T09:54:12.066Z,16.64
2022-09-13T09:57:53.649Z,16.60
2022-09-13T10:01:31.254Z,16.57
2022-09-13T10:05:01.327Z,16.57
2022-09-13T10:08:38.816Z,16.59
2022-09-13T10:12:28.103Z,16.71
2022-09-13T10:16:07.862Z,16.84
2022-09-13T10:19:28.176Z,16.94
2022-09-13T10:23:23.276Z,16.96
2022-09-13T10:26:40.819Z,16.96
2022-09-13T10:30:48.641Z,16.98
2022-09-13T10:34:02.096Z,16.97
2022-09-13T10:37:35.708Z,16.96
2022-09-13T10:41:11.737Z,16.94
2022-09-13T10:44:52.081Z,16.91
2022-09-13T10:48:21.998Z,16.91
2022-09-13T10:51:57.805Z,16.94
2022-09-13T10:55:44.123Z,16.97
2022-09-13T10:59:30.578Z,17.01
2022-09-13T11:03:14.244Z,17.02
2022-09-13T11:06:52.959Z,17.06
2022-09-13T11:10:13.400Z,17.08
2022-09-13T11:14:06.319Z,17.10
2022-09-13T11:17:38.256Z,17.12
2022-09-13T11:21:34.598Z,17.13
2022-09-13T11:24:56.882Z,17.13
2022-09-13T11:28:46.359Z,17.12
2022-09-13T11:32:26.226Z,17.08
2022-09-13T11:35:50.168Z,17.03
2022-09-13T11:39:52.772Z,17.00
2022-09-13T11:43:08.646Z,16.98
2022-09-13T11:46:45.191Z,17.00
2022-09-13T11:50:47.448Z,17.07
2022-09-13T11:53:53.323Z,17.13
2022-09-13T11:57:41.932Z,17.20
2022-09-13T12:01:09.052Z,17.25
2022-09-13T12:05:21.626Z,17.26
2022-09-13T12:08:53.436Z,17.26
2022-09-13T12:12:15.190Z,17.24
2022-09-13T12:15:57.214Z,17.21
2022-09-13T12:19:37.938Z,17.17
2022-09-13T12:23:12.015Z,17.13
2022-09-13T12:27:00.262Z,17.09
2022-09-13T12:30:17.226Z,17.05
2022-09-13T12:33:56.186Z,17.01
2022-09-13T12:41:47.738Z,16.95
2022-09-13T12:45:27.441Z,16.92
2022-09-13T12:48:53.867Z,16.90
2022-09-13T12:53:10.685Z,16.87
2022-09-13T12:56:34.805Z,16.84
2022-09-13T13:00:12.999Z,16.83
2022-09-13T13:03:31.816Z,16.84
2022-09-13T13:07:07.201Z,16.88
2022-09-13T13:10:40.687Z,16.94
2022-09-13T13:14:32.567Z,16.99
2022-09-13T13:17:56.475Z,17.04
2022-09-13T13:21:40.510Z,17.09
2022-09-13T13:25:46.649Z,17.11
2022-09-13T13:28:52.201Z,17.14
2022-09-13T13:36:29.073Z,17.19
2022-09-13T13:39:46.634Z,17.21
2022-09-13T13:43:38.424Z,17.23
2022-09-13T13:47:16.442Z,17.23
2022-09-13T13:50:36.240Z,17.23
2022-09-13T13:54:31.368Z,17.21
2022-09-13T13:58:08.297Z,17.19
2022-09-13T14:01:30.567Z,17.18
2022-09-13T14:05:15.549Z,17.17
2022-09-13T14:09:06.657Z,17.15
2022-09-13T14:12:37.484Z,17.16
2022-09-13T14:15:59.925Z,17.14
2022-09-13T14:19:54.339Z,17.13
2022-09-13T14:23:22.159Z,17.12
2022-09-13T14:26:49.959Z,17.11
2022-09-13T14:30:35.545Z,17.10
2022-09-13T14:34:00.707Z,17.09
2022-09-13T14:37:39.888Z,17.09
2022-09-13T14:41:20.557Z,17.06
2022-09-13T14:44:51.791Z,17.06
2022-09-13T14:48:40.857Z,17.09
2022-09-13T14:52:24.477Z,17.13
2022-09-13T14:56:01.714Z,17.16
2022-09-13T14:59:36.810Z,17.19
2022-09-13T15:03:04.905Z,17.22
2022-09-13T15:06:39.327Z,17.23
2022-09-13T15:10:19.557Z,17.19
2022-09-13T15:13:45.777Z,17.14
2022-09-13T15:17:22.467Z,17.09
2022-09-13T15:21:05.125Z,17.04
2022-09-13T15:24:36.188Z,16.98
2022-09-13T15:28:30.080Z,16.95
2022-09-13T15:31:59.793Z,16.93
2022-09-13T15:35:34.808Z,16.91
2022-09-13T15:39:17.806Z,16.88
2022-09-13T15:42:40.536Z,16.83
2022-09-13T15:46:18.874Z,16.78
2022-09-13T15:49:53.834Z,16.73
2022-09-13T15:53:30.673Z,16.68
2022-09-13T15:57:10.488Z,16.65
2022-09-13T16:00:44.446Z,16.62
2022-09-13T16:04:21.265Z,16.59
2022-09-13T16:07:58.995Z,16.54
2022-09-13T16:11:34.750Z,16.48
2022-09-13T16:15:13.188Z,16.45
2022-09-13T16:18:48.048Z,16.44
2022-09-13T16:22:24.799Z,16.46
2022-09-13T16:26:02.467Z,16.46
2022-09-13T16:29:57.572Z,16.42
2022-09-13T16:33:15.540Z,16.40
2022-09-13T16:36:52.417Z,16.39
2022-09-13T16:40:29.286Z,16.38
2022-09-13T16:44:05.466Z,16.36
2022-09-13T16:47:42.711Z,16.36
2022-09-13T16:51:19.187Z,16.34
2022-09-13T16:54:56.592Z,16.33
2022-09-13T16:58:33.048Z,16.31
2022-09-13T17:02:13.598Z,16.27
2022-09-13T17:05:57.927Z,16.26
2022-09-13T17:09:26.685Z,16.22
2022-09-13T17:13:00.547Z,16.19
2022-09-13T17:16:44.696Z,16.15
2022-09-13T17:20:14.079Z,16.13
2022-09-13T17:23:51.041Z,16.11
2022-09-13T17:27:27.774Z,16.08
2022-09-13T17:31:05.004Z,16.05
2022-09-13T17:34:42.738Z,16.02
2022-09-13T17:38:17.808Z,16.00
2022-09-13T17:41:55.168Z,15.99
2022-09-13T17:45:31.578Z,15.98
2022-09-13T17:49:08.937Z,15.97
2022-09-13T17:52:45.058Z,15.95
2022-09-13T17:56:36.689Z,15.94
2022-09-13T17:59:58.532Z,15.92
2022-09-13T18:03:37.141Z,15.91
2022-09-13T18:07:12.082Z,15.89
2022-09-13T18:11:10.514Z,15.88
2022-09-13T18:14:27.768Z,15.87
2022-09-13T18:18:04.053Z,15.86
2022-09-13T18:21:39.748Z,15.85
2022-09-13T18:25:17.352Z,15.85
2022-09-13T18:29:04.482Z,15.83
2022-09-13T18:32:31.188Z,15.82
2022-09-13T18:36:07.355Z,15.80
2022-09-13T18:39:43.497Z,15.78
2022-09-13T18:43:20.547Z,15.76
2022-09-13T18:46:58.522Z,15.73
2022-09-13T18:50:33.809Z,15.70
2022-09-13T18:54:18.278Z,15.69
2022-09-13T18:57:47.774Z,15.67
2022-09-13T19:01:28.634Z,15.67
2022-09-13T19:05:06.960Z,15.65
2022-09-13T19:08:38.461Z,15.64
2022-09-13T19:12:14.875Z,15.63
2022-09-13T19:15:51.584Z,15.61
2022-09-13T19:19:31.363Z,15.59
2022-09-13T19:23:05.389Z,15.56
2022-09-13T19:26:44.329Z,15.54
2022-09-13T19:30:18.818Z,15.52
2022-09-13T19:33:57.113Z,15.50
2022-09-13T19:37:33.414Z,15.47
2022-09-13T19:41:12.518Z,15.44
2022-09-13T19:44:46.730Z,15.40
2022-09-13T19:48:38.115Z,15.37
2022-09-13T19:52:00.148Z,15.34
2022-09-13T19:55:36.340Z,15.32
2022-09-13T19:59:15.568Z,15.30
2022-09-13T20:02:50.211Z,15.28
2022-09-13T20:06:28.672Z,15.24
2022-09-13T20:10:03.368Z,15.21
2022-09-13T20:13:40.477Z,15.18
2022-09-13T20:17:17.424Z,15.15
2022-09-13T20:20:57.721Z,15.12
2022-09-13T20:24:31.560Z,15.11
2022-09-13T20:28:07.052Z,15.08
2022-09-13T20:31:44.026Z,15.05
2022-09-13T20:35:22.422Z,15.03
2022-09-13T20:39:02.418Z,15.02
2022-09-13T20:42:34.520Z,15.01
2022-09-13T20:49:47.651Z,14.96
2022-09-13T20:53:25.102Z,14.92
2022-09-13T20:57:02.099Z,14.89
2022-09-13T21:00:38.108Z,14.88
2022-09-13T21:04:15.009Z,14.86
2022-09-13T21:08:10.238Z,14.85
2022-09-13T21:11:33.310Z,14.83
2022-09-13T21:15:08.081Z,14.81
2022-09-13T21:19:02.227Z,14.80
2022-09-13T21:22:19.868Z,14.78
2022-09-13T21:25:55.997Z,14.77
2022-09-13T21:29:33.426Z,14.75
2022-09-13T21:33:09.268Z,14.74
2022-09-13T21:36:47.439Z,14.74
2022-09-13T21:40:23.091Z,14.74
2022-09-13T21:44:00.469Z,14.74
2022-09-13T21:47:36.458Z,14.72
2022-09-13T21:51:21.370Z,14.70
2022-09-13T21:54:50.014Z,14.70
2022-09-13T21:58:26.926Z,14.67
2022-09-13T22:02:04.042Z,14.64
2022-09-13T22:05:41.502Z,14.63
2022-09-13T22:09:18.500Z,14.65
2022-09-13T22:12:54.098Z,14.66
2022-09-13T22:16:34.177Z,14.66
2022-09-13T22:20:08.019Z,14.65
2022-09-13T22:23:44.812Z,14.65
2022-09-13T22:27:21.516Z,14.64
2022-09-13T22:31:04.555Z,14.64
2022-09-13T22:34:35.199Z,14.64
2022-09-13T22:38:12.221Z,14.61
2022-09-13T22:41:48.645Z,14.59
2022-09-13T22:45:25.428Z,14.58
2022-09-13T22:49:03.848Z,14.60
2022-09-13T22:52:39.369Z,14.61
2022-09-13T22:56:18.598Z,14.61
2022-09-13T22:59:52.401Z,14.60
2022-09-13T23:03:29.977Z,14.60
2022-09-13T23:07:06.366Z,14.58
2022-09-13T23:10:42.988Z,14.58
2022-09-13T23:14:20.350Z,14.58
2022-09-13T23:17:56.499Z,14.59
2022-09-13T23:21:36.201Z,14.60
2022-09-13T23:25:10.063Z,14.61
2022-09-13T23:28:51.551Z,14.63
2022-09-13T23:32:23.605Z,14.63
2022-09-13T23:36:00.373Z,14.62
2022-09-13T23:39:37.248Z,14.59
2022-09-13T23:43:14.136Z,14.58
2022-09-13T23:46:51.202Z,14.55
2022-09-13T23:50:27.355Z,14.52
2022-09-13T23:54:05.348Z,14.51
2022-09-13T23:57:41.288Z,14.50
